createdAt,value
2019-05-11T00:01:51.946Z,52.59
2019-05-11T00:04:18.723Z,52.41
2019-05-11T00:06:45.509Z,52.50
2019-05-11T00:09:12.302Z,52.48
2019-05-11T00:11:39.077Z,52.12
2019-05-11T00:14:05.858Z,52.13
2019-05-11T00:16:32.650Z,52.40
2019-05-11T00:18:59.423Z,52.54
2019-05-11T00:21:26.184Z,52.36
2019-05-11T00:23:52.958Z,52.51
2019-05-11T00:26:19.738Z,52.48
2019-05-11T00:28:46.500Z,52.40
2019-05-11T00:31:13.297Z,52.34
2019-05-11T00:33:40.094Z,52.20
2019-05-11T00:36:06.859Z,52.42
2019-05-11T00:38:33.624Z,52.28
2019-05-11T00:41:00.402Z,52.16
2019-05-11T00:43:27.180Z,52.25
2019-05-11T00:45:53.971Z,52.16
2019-05-11T00:48:20.813Z,52.27
2019-05-11T00:50:47.600Z,52.22
2019-05-11T00:53:14.374Z,52.34
2019-05-11T00:55:41.160Z,52.12
2019-05-11T00:58:08.290Z,52.33
2019-05-11T01:00:35.144Z,52.15
2019-05-11T01:03:01.905Z,52.02
2019-05-11T01:05:28.745Z,52.40
2019-05-11T01:07:55.550Z,52.20
2019-05-11T01:10:29.048Z,52.29
2019-05-11T01:12:50.835Z,52.37
2019-05-11T01:15:17.712Z,52.26
2019-05-11T01:17:44.506Z,52.43
2019-05-11T01:20:11.305Z,52.24
2019-05-11T01:22:38.081Z,52.25
2019-05-11T01:25:04.887Z,52.22
2019-05-11T01:27:31.649Z,52.18
2019-05-11T01:29:58.459Z,52.22
2019-05-11T01:32:25.248Z,52.18
2019-05-11T01:34:52.038Z,52.51
2019-05-11T01:37:18.814Z,52.27
2019-05-11T01:39:45.597Z,52.02
2019-05-11T01:42:12.391Z,52.14
2019-05-11T01:44:39.173Z,52.20
2019-05-11T01:47:05.959Z,52.18
2019-05-11T01:49:32.725Z,52.37
2019-05-11T01:51:59.540Z,52.09
2019-05-11T01:54:26.299Z,52.27
2019-05-11T01:56:53.073Z,52.15
2019-05-11T01:59:19.856Z,52.11
2019-05-11T02:01:46.684Z,52.18
2019-05-11T02:04:13.462Z,52.25
2019-05-11T02:06:40.239Z,52.38
2019-05-11T02:09:07.190Z,52.02
2019-05-11T02:11:33.961Z,52.04
2019-05-11T02:14:00.751Z,52.07
2019-05-11T02:16:27.521Z,51.96
2019-05-11T02:18:54.324Z,51.95
2019-05-11T02:21:21.132Z,51.96
2019-05-11T02:23:47.922Z,52.01
2019-05-11T02:26:14.721Z,52.18
2019-05-11T02:28:41.561Z,52.01
2019-05-11T02:31:08.375Z,52.11
2019-05-11T02:33:35.207Z,52.09
2019-05-11T02:36:01.995Z,51.93
2019-05-11T02:38:28.767Z,52.29
2019-05-11T02:40:55.559Z,52.14
2019-05-11T02:43:22.332Z,52.27
2019-05-11T02:45:49.112Z,51.92
2019-05-11T02:48:15.895Z,52.08
2019-05-11T02:50:42.744Z,52.08
2019-05-11T02:53:09.528Z,52.03
2019-05-11T02:55:36.325Z,52.11
2019-05-11T02:58:03.096Z,52.02
2019-05-11T03:00:29.881Z,52.26
2019-05-11T03:02:56.658Z,52.31
2019-05-11T03:05:23.421Z,51.95
2019-05-11T03:07:50.227Z,52.02
2019-05-11T03:10:16.999Z,52.20
2019-05-11T03:12:43.771Z,52.26
2019-05-11T03:15:10.545Z,52.29
2019-05-11T03:17:37.333Z,52.08
2019-05-11T03:20:04.123Z,52.18
2019-05-11T03:22:30.891Z,52.23
2019-05-11T03:24:57.703Z,52.12
2019-05-11T03:27:24.487Z,52.05
2019-05-11T03:29:51.253Z,52.12
2019-05-11T03:32:18.061Z,52.18
2019-05-11T03:34:44.821Z,51.88
2019-05-11T03:37:11.597Z,52.14
2019-05-11T03:39:38.385Z,52.19
2019-05-11T03:42:14.580Z,52.19
2019-05-11T03:44:33.746Z,51.75
2019-05-11T03:47:00.524Z,51.77
2019-05-11T03:49:27.332Z,51.95
2019-05-11T03:51:54.111Z,51.71
2019-05-11T03:54:20.962Z,52.12
2019-05-11T03:56:47.746Z,52.02
2019-05-11T03:59:14.526Z,51.95
2019-05-11T04:01:41.309Z,52.01
2019-05-11T04:04:08.100Z,52.19
2019-05-11T04:06:34.891Z,51.94
2019-05-11T04:09:01.667Z,52.18
2019-05-11T04:11:28.471Z,51.99
2019-05-11T04:13:55.293Z,52.03
2019-05-11T04:16:22.087Z,52.31
2019-05-11T04:18:48.936Z,52.27
2019-05-11T04:21:15.709Z,52.22
2019-05-11T04:23:42.477Z,52.23
2019-05-11T04:26:09.245Z,52.03
2019-05-11T04:28:36.032Z,51.96
2019-05-11T04:31:02.792Z,51.89
2019-05-11T04:33:32.963Z,51.87
2019-05-11T04:35:58.068Z,52.21
2019-05-11T04:38:24.871Z,52.22
2019-05-11T04:40:51.653Z,51.97
2019-05-11T04:43:18.513Z,52.18
2019-05-11T04:45:45.314Z,51.76
2019-05-11T04:48:12.093Z,52.07
2019-05-11T04:50:38.887Z,52.04
2019-05-11T04:53:05.672Z,52.03
2019-05-11T04:55:32.551Z,51.97
2019-05-11T04:57:59.330Z,51.94
2019-05-11T05:00:26.112Z,52.23
2019-05-11T05:02:52.910Z,52.16
2019-05-11T05:05:19.755Z,52.12
2019-05-11T05:07:48.814Z,51.92
2019-05-11T05:10:19.959Z,52.17
2019-05-11T05:12:50.384Z,52.07
2019-05-11T05:15:12.087Z,52.07
2019-05-11T05:17:38.862Z,52.10
2019-05-11T05:20:05.620Z,52.05
2019-05-11T05:22:32.432Z,51.92
2019-05-11T05:24:59.207Z,51.80
2019-05-11T05:27:25.988Z,52.04
2019-05-11T05:29:52.750Z,52.04
2019-05-11T05:32:19.512Z,52.07
2019-05-11T05:34:46.329Z,52.11
2019-05-11T05:37:13.109Z,51.85
2019-05-11T05:39:39.878Z,51.98
2019-05-11T05:42:06.684Z,52.19
2019-05-11T05:44:33.457Z,51.86
2019-05-11T05:47:00.245Z,51.93
2019-05-11T05:49:27.026Z,51.86
2019-05-11T05:51:57.811Z,52.02
2019-05-11T05:54:22.370Z,52.01
2019-05-11T05:56:49.617Z,52.03
2019-05-11T05:59:16.412Z,51.78
2019-05-11T06:01:43.176Z,52.05
2019-05-11T06:04:09.962Z,51.96
2019-05-11T06:06:36.732Z,52.04
2019-05-11T06:09:05.170Z,52.03
2019-05-11T06:11:31.952Z,52.06
2019-05-11T06:13:58.730Z,51.96
2019-05-11T06:16:25.508Z,51.78
2019-05-11T06:18:52.269Z,51.80
2019-05-11T06:21:19.059Z,52.05
2019-05-11T06:23:45.847Z,52.07
2019-05-11T06:26:12.620Z,52.09
2019-05-11T06:28:39.384Z,52.06
2019-05-11T06:31:06.169Z,51.86
2019-05-11T06:33:32.933Z,51.97
2019-05-11T06:35:59.764Z,52.01
2019-05-11T06:38:26.569Z,52.12
2019-05-11T06:40:53.341Z,52.00
2019-05-11T06:43:20.290Z,51.95
2019-05-11T06:45:47.147Z,51.89
2019-05-11T06:48:13.938Z,51.91
2019-05-11T06:50:40.712Z,51.89
2019-05-11T06:53:07.493Z,51.91
2019-05-11T06:55:34.280Z,51.84
2019-05-11T06:58:01.060Z,51.81
2019-05-11T07:00:27.827Z,51.78
2019-05-11T07:02:54.615Z,51.84
2019-05-11T07:05:21.419Z,51.69
2019-05-11T07:07:48.219Z,51.72
2019-05-11T07:10:15.036Z,51.38
2019-05-11T07:12:43.526Z,51.28
2019-05-11T07:15:10.317Z,51.53
2019-05-11T07:17:37.105Z,51.67
2019-05-11T07:20:03.907Z,51.55
2019-05-11T07:22:30.695Z,51.81
2019-05-11T07:24:57.507Z,51.65
2019-05-11T07:27:24.363Z,51.57
2019-05-11T07:29:51.116Z,51.45
2019-05-11T07:32:25.029Z,51.63
2019-05-11T07:34:48.581Z,51.29
2019-05-11T07:37:14.922Z,51.37
2019-05-11T07:39:41.698Z,51.52
2019-05-11T07:42:08.507Z,51.45
2019-05-11T07:44:38.810Z,51.30
2019-05-11T07:47:03.808Z,51.36
2019-05-11T07:49:30.664Z,51.59
2019-05-11T07:51:58.649Z,51.33
2019-05-11T07:54:27.929Z,51.25
2019-05-11T07:56:54.240Z,51.36
2019-05-11T07:59:21.053Z,51.16
2019-05-11T08:01:48.070Z,51.36
2019-05-11T08:04:14.990Z,51.50
2019-05-11T08:06:42.038Z,51.30
2019-05-11T08:09:08.832Z,51.45
2019-05-11T08:11:35.601Z,51.42
2019-05-11T08:14:02.397Z,51.27
2019-05-11T08:16:29.307Z,51.53
2019-05-11T08:18:58.600Z,51.27
2019-05-11T08:21:24.604Z,51.24
2019-05-11T08:23:51.372Z,51.39
2019-05-11T08:26:19.018Z,51.23
2019-05-11T08:28:48.432Z,51.43
2019-05-11T08:31:14.508Z,51.29
2019-05-11T08:33:41.297Z,51.18
2019-05-11T08:36:08.450Z,51.33
2019-05-11T08:38:37.598Z,51.60
2019-05-11T08:41:03.814Z,51.43
2019-05-11T08:43:30.842Z,51.51
2019-05-11T08:45:57.951Z,51.45
2019-05-11T08:48:24.880Z,51.40
2019-05-11T08:50:51.737Z,51.76
2019-05-11T08:53:18.506Z,51.50
2019-05-11T08:55:45.303Z,51.45
2019-05-11T08:58:12.100Z,51.66
2019-05-11T09:00:39.094Z,51.51
2019-05-11T09:03:08.371Z,51.61
2019-05-11T09:05:34.450Z,51.58
2019-05-11T09:08:01.250Z,51.59
2019-05-11T09:10:28.294Z,51.63
2019-05-11T09:12:55.189Z,51.37
2019-05-11T09:15:35.960Z,51.48
2019-05-11T09:17:50.651Z,51.42
2019-05-11T09:20:18.042Z,51.41
2019-05-11T09:22:44.983Z,51.44
2019-05-11T09:25:11.841Z,51.60
2019-05-11T09:27:38.649Z,51.48
2019-05-11T09:30:08.096Z,51.45
2019-05-11T09:32:33.963Z,51.34
2019-05-11T09:35:00.745Z,51.36
2019-05-11T09:37:27.837Z,51.39
2019-05-11T09:39:54.873Z,51.30
2019-05-11T09:42:21.635Z,51.67
2019-05-11T09:44:48.670Z,51.17
2019-05-11T09:47:15.492Z,51.46
2019-05-11T09:49:47.477Z,51.29
2019-05-11T09:52:10.780Z,51.40
2019-05-11T09:54:38.207Z,51.22
2019-05-11T09:57:05.271Z,51.61
2019-05-11T09:59:32.037Z,51.42
2019-05-11T10:01:59.103Z,51.37
2019-05-11T10:04:25.999Z,51.36
2019-05-11T10:06:52.892Z,51.19
2019-05-11T10:09:19.684Z,51.34
2019-05-11T10:11:48.028Z,51.36
2019-05-11T10:14:15.000Z,51.50
2019-05-11T10:16:41.795Z,51.37
2019-05-11T10:19:08.718Z,51.52
2019-05-11T10:21:35.537Z,51.48
2019-05-11T10:24:02.323Z,51.29
2019-05-11T10:26:29.104Z,51.40
2019-05-11T10:28:58.316Z,51.30
2019-05-11T10:31:24.424Z,51.34
2019-05-11T10:33:51.277Z,51.62
2019-05-11T10:36:18.834Z,51.36
2019-05-11T10:38:48.430Z,51.67
2019-05-11T10:41:14.501Z,51.34
2019-05-11T10:43:41.362Z,51.53
2019-05-11T10:46:17.106Z,51.35
2019-05-11T10:48:38.790Z,51.24
2019-05-11T10:51:05.197Z,51.52
2019-05-11T10:53:31.978Z,51.25
2019-05-11T10:55:58.765Z,51.74
2019-05-11T10:58:25.540Z,51.33
2019-05-11T11:00:52.343Z,51.46
2019-05-11T11:03:19.114Z,51.40
2019-05-11T11:05:45.940Z,51.56
2019-05-11T11:08:12.745Z,51.59
2019-05-11T11:10:39.518Z,51.51
2019-05-11T11:13:08.309Z,51.34
2019-05-11T11:15:34.826Z,51.37
2019-05-11T11:18:01.642Z,51.31
2019-05-11T11:20:28.420Z,51.50
2019-05-11T11:22:55.226Z,51.35
2019-05-11T11:25:22.023Z,51.49
2019-05-11T11:27:49.096Z,51.41
2019-05-11T11:30:17.979Z,51.63
2019-05-11T11:32:44.435Z,51.60
2019-05-11T11:35:11.224Z,51.44
2019-05-11T11:37:38.672Z,51.27
2019-05-11T11:40:05.687Z,51.39
2019-05-11T11:42:32.466Z,51.31
2019-05-11T11:44:59.232Z,51.48
2019-05-11T11:47:28.059Z,51.37
2019-05-11T11:49:54.616Z,51.36
2019-05-11T11:52:21.397Z,51.71
2019-05-11T11:54:48.196Z,51.68
2019-05-11T11:57:14.989Z,51.54
2019-05-11T11:59:41.782Z,51.20
2019-05-11T12:02:08.752Z,51.48
2019-05-11T12:04:35.681Z,51.21
2019-05-11T12:07:02.753Z,51.56
2019-05-11T12:09:29.551Z,51.53
2019-05-11T12:11:58.156Z,51.41
2019-05-11T12:14:24.898Z,51.23
2019-05-11T12:17:03.995Z,51.47
2019-05-11T12:19:20.181Z,51.15
2019-05-11T12:21:48.374Z,51.17
2019-05-11T12:24:15.402Z,51.14
2019-05-11T12:26:42.189Z,51.20
2019-05-11T12:29:08.968Z,51.50
2019-05-11T12:31:37.877Z,51.23
2019-05-11T12:34:04.532Z,51.23
2019-05-11T12:36:31.316Z,51.22
2019-05-11T12:38:58.162Z,51.31
2019-05-11T12:41:25.011Z,51.48
2019-05-11T12:43:51.796Z,51.36
2019-05-11T12:46:19.098Z,51.13
2019-05-11T12:48:48.251Z,51.17
2019-05-11T12:51:14.443Z,51.31
2019-05-11T12:53:41.212Z,51.06
2019-05-11T12:56:08.394Z,51.42
2019-05-11T12:58:35.344Z,51.29
2019-05-11T13:01:02.125Z,51.25
2019-05-11T13:03:28.897Z,51.01
2019-05-11T13:05:55.756Z,50.93
2019-05-11T13:08:22.532Z,50.84
2019-05-11T13:10:49.312Z,50.82
2019-05-11T13:13:18.178Z,50.99
2019-05-11T13:15:44.597Z,51.18
2019-05-11T13:18:11.374Z,51.26
2019-05-11T13:20:38.177Z,50.81
2019-05-11T13:23:04.963Z,51.06
2019-05-11T13:25:31.741Z,51.15
2019-05-11T13:27:58.512Z,51.09
2019-05-11T13:30:27.620Z,51.00
2019-05-11T13:32:53.802Z,51.29
2019-05-11T13:35:20.595Z,51.09
2019-05-11T13:37:47.925Z,51.35
2019-05-11T13:40:15.095Z,51.07
2019-05-11T13:42:41.958Z,51.02
2019-05-11T13:45:08.796Z,50.82
2019-05-11T13:47:49.376Z,51.22
2019-05-11T13:50:04.162Z,51.27
2019-05-11T13:52:30.950Z,51.28
2019-05-11T13:54:58.496Z,51.25
2019-05-11T13:57:25.518Z,51.07
2019-05-11T13:59:52.285Z,51.12
2019-05-11T14:02:19.066Z,51.07
2019-05-11T14:04:47.599Z,51.22
2019-05-11T14:07:14.354Z,51.40
2019-05-11T14:09:41.142Z,51.51
2019-05-11T14:12:07.917Z,51.63
2019-05-11T14:14:34.714Z,51.63
2019-05-11T14:17:01.500Z,51.00
2019-05-11T14:19:29.204Z,51.26
2019-05-11T14:21:57.977Z,51.21
2019-05-11T14:24:24.569Z,51.11
2019-05-11T14:26:51.717Z,51.24
2019-05-11T14:29:18.497Z,51.33
2019-05-11T14:31:45.332Z,51.48
2019-05-11T14:34:12.179Z,51.46
2019-05-11T14:36:39.075Z,51.28
2019-05-11T14:39:08.385Z,51.12
2019-05-11T14:41:34.998Z,51.24
2019-05-11T14:44:01.779Z,51.12
2019-05-11T14:46:28.796Z,51.19
2019-05-11T14:48:55.586Z,51.10
2019-05-11T14:51:22.412Z,51.04
2019-05-11T14:53:49.214Z,51.42
2019-05-11T14:56:18.761Z,51.25
2019-05-11T14:58:44.806Z,51.18
2019-05-11T15:01:14.633Z,51.14
2019-05-11T15:03:40.081Z,51.25
2019-05-11T15:06:08.334Z,51.03
2019-05-11T15:08:35.242Z,51.26
2019-05-11T15:11:02.009Z,51.12
2019-05-11T15:13:28.955Z,51.14
2019-05-11T15:15:55.752Z,51.37
2019-05-11T15:18:35.258Z,51.03
2019-05-11T15:20:51.052Z,51.00
2019-05-11T15:23:18.231Z,51.05
2019-05-11T15:25:45.215Z,51.06
2019-05-11T15:28:11.975Z,51.43
2019-05-11T15:30:38.783Z,50.99
2019-05-11T15:33:07.581Z,51.12
2019-05-11T15:35:34.077Z,51.09
2019-05-11T15:38:00.860Z,51.09
2019-05-11T15:40:28.001Z,51.12
2019-05-11T15:42:54.875Z,51.05
2019-05-11T15:45:21.648Z,51.47
2019-05-11T15:47:49.001Z,51.25
2019-05-11T15:50:18.669Z,51.30
2019-05-11T15:52:44.580Z,51.17
2019-05-11T15:55:11.362Z,51.48
2019-05-11T15:57:38.677Z,51.61
2019-05-11T16:00:05.592Z,51.33
2019-05-11T16:02:32.432Z,51.32
2019-05-11T16:04:59.244Z,51.45
2019-05-11T16:07:28.042Z,51.30
2019-05-11T16:09:54.522Z,51.31
2019-05-11T16:12:21.308Z,51.40
2019-05-11T16:14:48.608Z,51.29
2019-05-11T16:17:15.421Z,51.24
2019-05-11T16:19:42.236Z,51.57
2019-05-11T16:22:10.030Z,51.17
2019-05-11T16:24:39.813Z,51.23
2019-05-11T16:27:05.582Z,51.30
2019-05-11T16:29:32.408Z,51.45
2019-05-11T16:31:59.254Z,51.63
2019-05-11T16:34:27.750Z,51.40
2019-05-11T16:36:54.586Z,51.21
2019-05-11T16:39:21.365Z,51.58
2019-05-11T16:41:48.655Z,51.27
2019-05-11T16:44:18.279Z,51.37
2019-05-11T16:46:44.220Z,51.37
2019-05-11T16:49:24.986Z,51.40
2019-05-11T16:51:39.569Z,51.29
2019-05-11T16:54:06.351Z,51.56
2019-05-11T16:56:33.219Z,51.58
2019-05-11T16:59:00.004Z,51.56
2019-05-11T17:01:26.798Z,51.39
2019-05-11T17:03:53.622Z,51.48
2019-05-11T17:06:20.400Z,51.35
2019-05-11T17:08:48.702Z,51.41
2019-05-11T17:11:15.650Z,51.43
2019-05-11T17:13:42.422Z,51.29
2019-05-11T17:16:09.197Z,51.48
2019-05-11T17:18:35.981Z,51.37
2019-05-11T17:21:02.770Z,51.43
2019-05-11T17:23:31.039Z,51.52
2019-05-11T17:25:58.160Z,51.39
2019-05-11T17:28:25.036Z,51.30
2019-05-11T17:30:51.844Z,51.40
2019-05-11T17:33:18.670Z,51.33
2019-05-11T17:35:45.433Z,51.34
2019-05-11T17:38:12.214Z,51.29
2019-05-11T17:40:38.993Z,51.57
2019-05-11T17:43:05.762Z,51.49
2019-05-11T17:45:32.569Z,51.44
2019-05-11T17:47:59.362Z,51.31
2019-05-11T17:50:28.163Z,51.40
2019-05-11T17:52:55.066Z,51.31
2019-05-11T17:55:21.852Z,51.58
2019-05-11T17:57:50.442Z,51.34
2019-05-11T18:00:17.138Z,51.45
2019-05-11T18:02:43.914Z,51.59
2019-05-11T18:05:10.722Z,51.54
2019-05-11T18:07:38.551Z,51.60
2019-05-11T18:10:07.975Z,51.45
2019-05-11T18:12:34.118Z,51.42
2019-05-11T18:15:00.895Z,51.34
2019-05-11T18:17:27.681Z,51.64
2019-05-11T18:19:54.447Z,51.52
2019-05-11T18:22:21.240Z,51.52
2019-05-11T18:24:49.006Z,51.44
2019-05-11T18:27:18.333Z,51.62
2019-05-11T18:29:44.488Z,51.54
2019-05-11T18:32:11.287Z,51.46
2019-05-11T18:34:38.063Z,51.52
2019-05-11T18:37:04.904Z,51.60
2019-05-11T18:39:31.716Z,51.56
2019-05-11T18:41:58.833Z,51.62
2019-05-11T18:44:25.724Z,51.45
2019-05-11T18:46:52.499Z,51.53
2019-05-11T18:49:19.264Z,51.60
2019-05-11T18:51:48.161Z,51.54
2019-05-11T18:54:14.533Z,51.71
2019-05-11T18:56:41.316Z,51.70
2019-05-11T18:59:08.885Z,51.60
2019-05-11T19:01:38.008Z,51.45
2019-05-11T19:04:04.500Z,51.52
2019-05-11T19:06:31.276Z,51.46
2019-05-11T19:08:58.181Z,51.67
2019-05-11T19:11:25.165Z,51.62
2019-05-11T19:13:51.973Z,51.65
2019-05-11T19:16:18.945Z,51.48
2019-05-11T19:18:47.846Z,51.63
2019-05-11T19:21:14.239Z,51.66
2019-05-11T19:23:41.039Z,51.78
2019-05-11T19:26:08.349Z,51.68
2019-05-11T19:28:35.266Z,51.65
2019-05-11T19:31:02.042Z,51.76
2019-05-11T19:33:28.842Z,51.79
2019-05-11T19:35:55.619Z,51.58
2019-05-11T19:38:22.398Z,51.79
2019-05-11T19:40:49.170Z,51.75
2019-05-11T19:43:18.354Z,51.81
2019-05-11T19:45:44.426Z,51.81
2019-05-11T19:48:11.236Z,51.75
2019-05-11T19:50:40.839Z,51.75
2019-05-11T19:53:08.415Z,51.70
2019-05-11T19:55:35.009Z,51.65
2019-05-11T19:58:01.772Z,51.72
2019-05-11T20:00:28.724Z,51.67
2019-05-11T20:02:55.506Z,51.72
2019-05-11T20:05:22.278Z,51.68
2019-05-11T20:07:49.163Z,51.79
2019-05-11T20:10:18.540Z,51.76
2019-05-11T20:12:44.717Z,51.82
2019-05-11T20:15:11.536Z,51.72
2019-05-11T20:17:39.184Z,51.81
2019-05-11T20:20:08.673Z,51.85
2019-05-11T20:22:34.643Z,51.78
2019-05-11T20:25:01.468Z,51.73
2019-05-11T20:27:28.384Z,51.74
2019-05-11T20:29:55.134Z,51.82
2019-05-11T20:32:21.912Z,51.66
2019-05-11T20:34:48.691Z,51.78
2019-05-11T20:37:15.491Z,51.82
2019-05-11T20:39:42.262Z,51.81
2019-05-11T20:42:09.054Z,51.61
2019-05-11T20:44:37.882Z,51.78
2019-05-11T20:47:04.351Z,51.79
2019-05-11T20:49:31.127Z,51.75
2019-05-11T20:51:58.157Z,51.68
2019-05-11T20:54:25.003Z,51.77
2019-05-11T20:56:51.794Z,51.64
2019-05-11T20:59:18.570Z,51.76
2019-05-11T21:01:45.358Z,51.72
2019-05-11T21:04:12.147Z,51.82
2019-05-11T21:06:38.938Z,51.61
2019-05-11T21:09:06.626Z,51.65
2019-05-11T21:11:33.393Z,51.76
2019-05-11T21:14:00.180Z,51.67
2019-05-11T21:16:26.947Z,51.75
2019-05-11T21:18:53.739Z,51.67
2019-05-11T21:21:20.526Z,51.73
2019-05-11T21:23:48.792Z,51.72
2019-05-11T21:26:15.959Z,51.62
2019-05-11T21:28:42.840Z,51.75
2019-05-11T21:31:09.623Z,51.78
2019-05-11T21:33:37.935Z,51.79
2019-05-11T21:36:04.872Z,51.80
2019-05-11T21:38:31.953Z,51.79
2019-05-11T21:40:58.798Z,51.76
2019-05-11T21:43:25.677Z,51.82
2019-05-11T21:45:52.444Z,51.74
2019-05-11T21:48:19.235Z,51.78
2019-05-11T21:50:46.028Z,51.67
2019-05-11T21:53:12.805Z,51.71
2019-05-11T21:55:39.571Z,51.76
2019-05-11T21:58:08.864Z,51.74
2019-05-11T22:00:34.863Z,51.68
2019-05-11T22:03:01.700Z,51.70
2019-05-11T22:05:29.117Z,51.67
2019-05-11T22:07:58.116Z,51.71
2019-05-11T22:10:24.520Z,51.78
2019-05-11T22:12:51.317Z,51.84
2019-05-11T22:15:18.087Z,51.77
2019-05-11T22:17:44.876Z,51.80
2019-05-11T22:20:11.703Z,51.75
2019-05-11T22:22:39.181Z,51.73
2019-05-11T22:25:07.872Z,51.72
2019-05-11T22:27:34.584Z,51.68
2019-05-11T22:30:01.372Z,51.82
2019-05-11T22:32:28.599Z,51.51
2019-05-11T22:34:55.546Z,51.63
2019-05-11T22:37:22.332Z,51.62
2019-05-11T22:39:49.592Z,51.79
2019-05-11T22:42:18.322Z,51.80
2019-05-11T22:44:44.995Z,51.59
2019-05-11T22:47:11.766Z,51.68
2019-05-11T22:49:38.566Z,51.36
2019-05-11T22:52:05.360Z,51.71
2019-05-11T22:54:32.498Z,51.84
2019-05-11T22:56:59.379Z,51.83
2019-05-11T22:59:28.114Z,51.78
2019-05-11T23:01:54.700Z,51.79
2019-05-11T23:04:21.470Z,51.71
2019-05-11T23:06:48.248Z,51.72
2019-05-11T23:09:15.034Z,51.55
2019-05-11T23:11:41.866Z,51.79
2019-05-11T23:14:10.022Z,51.60
2019-05-11T23:16:37.185Z,51.66
2019-05-11T23:19:03.949Z,51.75
2019-05-11T23:21:30.722Z,51.66
2019-05-11T23:23:58.331Z,51.78
2019-05-11T23:26:25.270Z,51.75
2019-05-11T23:28:52.044Z,51.68
2019-05-11T23:31:18.842Z,51.75
2019-05-11T23:33:45.682Z,51.57
2019-05-11T23:36:12.457Z,51.77
2019-05-11T23:38:39.251Z,51.80
2019-05-11T23:41:08.144Z,51.72
2019-05-11T23:43:34.602Z,51.62
2019-05-11T23:46:01.382Z,51.72
2019-05-11T23:48:28.192Z,51.70
2019-05-11T23:50:54.992Z,51.75
2019-05-11T23:53:21.774Z,51.79
2019-05-11T23:55:48.562Z,51.55
2019-05-11T23:58:15.338Z,51.62
